sensor_id;sensor_type;location;lat;lon;timestamp;pressure;altitude;pressure_sealevel;temperature;humidity
79370;BME280;68835;53.096;17.932;2023-06-26T00:00:24;100881.11;;;16.22;61.30
79370;BME280;68835;53.096;17.932;2023-06-26T00:03:11;100882.96;;;16.14;61.48
79370;BME280;68835;53.096;17.932;2023-06-26T00:05:41;100881.23;;;16.09;61.73
79370;BME280;68835;53.096;17.932;2023-06-26T00:08:08;100882.49;;;16.08;61.86
79370;BME280;68835;53.096;17.932;2023-06-26T00:10:35;100885.67;;;16.06;62.14
79370;BME280;68835;53.096;17.932;2023-06-26T00:13:02;100883.77;;;16.04;62.57
79370;BME280;68835;53.096;17.932;2023-06-26T00:15:29;100882.21;;;16.01;62.33
79370;BME280;68835;53.096;17.932;2023-06-26T00:18:00;100880.99;;;15.99;62.59
79370;BME280;68835;53.096;17.932;2023-06-26T00:20:27;100876.94;;;15.98;62.65
79370;BME280;68835;53.096;17.932;2023-06-26T00:22:54;100880.65;;;15.98;62.74
79370;BME280;68835;53.096;17.932;2023-06-26T00:25:21;100880.14;;;15.96;63.34
79370;BME280;68835;53.096;17.932;2023-06-26T00:27:48;100881.42;;;15.92;63.23
79370;BME280;68835;53.096;17.932;2023-06-26T00:30:14;100883.21;;;15.88;63.14
79370;BME280;68835;53.096;17.932;2023-06-26T00:32:41;100882.73;;;15.82;63.76
79370;BME280;68835;53.096;17.932;2023-06-26T00:35:07;100878.77;;;15.73;63.93
79370;BME280;68835;53.096;17.932;2023-06-26T00:37:34;100877.23;;;15.63;63.94
79370;BME280;68835;53.096;17.932;2023-06-26T00:40:01;100876.39;;;15.58;64.00
79370;BME280;68835;53.096;17.932;2023-06-26T00:42:27;100877.31;;;15.54;63.94
79370;BME280;68835;53.096;17.932;2023-06-26T00:44:54;100875.39;;;15.51;64.11
79370;BME280;68835;53.096;17.932;2023-06-26T00:47:20;100872.95;;;15.47;63.92
79370;BME280;68835;53.096;17.932;2023-06-26T00:49:47;100872.46;;;15.43;64.16
79370;BME280;68835;53.096;17.932;2023-06-26T00:52:14;100873.92;;;15.36;64.57
79370;BME280;68835;53.096;17.932;2023-06-26T00:54:41;100880.67;;;15.30;64.58
79370;BME280;68835;53.096;17.932;2023-06-26T00:57:09;100877.72;;;15.23;65.00
79370;BME280;68835;53.096;17.932;2023-06-26T00:59:36;100878.48;;;15.14;64.96
79370;BME280;68835;53.096;17.932;2023-06-26T01:02:03;100876.45;;;15.04;65.12
79370;BME280;68835;53.096;17.932;2023-06-26T01:04:31;100876.48;;;14.99;65.42
79370;BME280;68835;53.096;17.932;2023-06-26T01:06:59;100874.73;;;14.94;65.77
79370;BME280;68835;53.096;17.932;2023-06-26T01:09:28;100871.20;;;14.93;65.62
79370;BME280;68835;53.096;17.932;2023-06-26T01:11:56;100870.52;;;14.94;65.81
79370;BME280;68835;53.096;17.932;2023-06-26T01:14:23;100866.46;;;14.94;65.85
79370;BME280;68835;53.096;17.932;2023-06-26T01:16:50;100863.63;;;14.94;65.75
79370;BME280;68835;53.096;17.932;2023-06-26T01:19:24;100861.89;;;14.91;65.79
79370;BME280;68835;53.096;17.932;2023-06-26T01:22:22;100859.95;;;14.92;65.91
79370;BME280;68835;53.096;17.932;2023-06-26T01:27:48;100855.71;;;14.92;66.60
79370;BME280;68835;53.096;17.932;2023-06-26T01:30:16;100851.86;;;14.88;66.39
79370;BME280;68835;53.096;17.932;2023-06-26T01:32:45;100848.36;;;14.84;66.60
79370;BME280;68835;53.096;17.932;2023-06-26T01:35:12;100845.24;;;14.77;66.91
79370;BME280;68835;53.096;17.932;2023-06-26T01:37:39;100844.02;;;14.74;66.96
79370;BME280;68835;53.096;17.932;2023-06-26T01:40:07;100845.09;;;14.73;66.77
79370;BME280;68835;53.096;17.932;2023-06-26T01:42:34;100843.31;;;14.74;67.19
79370;BME280;68835;53.096;17.932;2023-06-26T01:45:24;100835.08;;;14.65;67.55
79370;BME280;68835;53.096;17.932;2023-06-26T01:47:57;100837.73;;;14.63;67.53
79370;BME280;68835;53.096;17.932;2023-06-26T01:50:28;100838.48;;;14.57;67.41
79370;BME280;68835;53.096;17.932;2023-06-26T01:53:02;100838.83;;;14.56;67.60
79370;BME280;68835;53.096;17.932;2023-06-26T01:58:17;100840.61;;;14.47;68.00
79370;BME280;68835;53.096;17.932;2023-06-26T02:00:44;100831.83;;;14.39;68.01
79370;BME280;68835;53.096;17.932;2023-06-26T02:03:11;100833.23;;;14.40;68.18
79370;BME280;68835;53.096;17.932;2023-06-26T02:05:39;100831.29;;;14.40;68.06
79370;BME280;68835;53.096;17.932;2023-06-26T02:08:06;100832.52;;;14.41;68.49
79370;BME280;68835;53.096;17.932;2023-06-26T02:10:32;100830.59;;;14.39;68.43
79370;BME280;68835;53.096;17.932;2023-06-26T02:12:58;100829.05;;;14.32;68.53
79370;BME280;68835;53.096;17.932;2023-06-26T02:15:25;100830.98;;;14.26;68.69
79370;BME280;68835;53.096;17.932;2023-06-26T02:17:52;100832.60;;;14.22;68.82
79370;BME280;68835;53.096;17.932;2023-06-26T02:20:18;100832.08;;;14.20;69.04
79370;BME280;68835;53.096;17.932;2023-06-26T02:22:45;100831.23;;;14.16;69.18
79370;BME280;68835;53.096;17.932;2023-06-26T02:25:11;100832.28;;;14.12;69.07
79370;BME280;68835;53.096;17.932;2023-06-26T02:27:38;100833.16;;;14.12;69.22
79370;BME280;68835;53.096;17.932;2023-06-26T02:30:05;100832.46;;;14.11;68.92
79370;BME280;68835;53.096;17.932;2023-06-26T02:32:32;100834.39;;;14.12;69.44
79370;BME280;68835;53.096;17.932;2023-06-26T02:34:59;100834.92;;;14.11;69.35
79370;BME280;68835;53.096;17.932;2023-06-26T02:37:26;100834.75;;;14.10;69.26
79370;BME280;68835;53.096;17.932;2023-06-26T02:39:52;100832.83;;;14.07;69.68
79370;BME280;68835;53.096;17.932;2023-06-26T02:42:19;100831.59;;;14.05;69.48
79370;BME280;68835;53.096;17.932;2023-06-26T02:44:46;100825.10;;;14.03;69.68
79370;BME280;68835;53.096;17.932;2023-06-26T02:47:12;100831.96;;;14.01;69.79
79370;BME280;68835;53.096;17.932;2023-06-26T02:49:41;100830.23;;;13.95;69.70
79370;BME280;68835;53.096;17.932;2023-06-26T02:52:08;100829.52;;;13.91;69.71
79370;BME280;68835;53.096;17.932;2023-06-26T02:54:34;100837.09;;;13.93;69.82
79370;BME280;68835;53.096;17.932;2023-06-26T02:57:03;100837.98;;;13.94;69.73
79370;BME280;68835;53.096;17.932;2023-06-26T02:59:31;100835.69;;;13.94;69.90
79370;BME280;68835;53.096;17.932;2023-06-26T03:01:57;100833.40;;;13.94;69.75
79370;BME280;68835;53.096;17.932;2023-06-26T03:04:29;100830.56;;;13.97;69.98
79370;BME280;68835;53.096;17.932;2023-06-26T03:06:56;100832.50;;;14.00;69.96
79370;BME280;68835;53.096;17.932;2023-06-26T03:09:22;100832.67;;;13.99;69.87
79370;BME280;68835;53.096;17.932;2023-06-26T03:11:50;100831.63;;;13.95;70.28
79370;BME280;68835;53.096;17.932;2023-06-26T03:14:16;100832.67;;;13.93;70.38
79370;BME280;68835;53.096;17.932;2023-06-26T03:16:43;100826.71;;;13.95;70.26
79370;BME280;68835;53.096;17.932;2023-06-26T03:19:10;100830.73;;;13.99;70.03
79370;BME280;68835;53.096;17.932;2023-06-26T03:21:55;100823.69;;;14.03;70.08
79370;BME280;68835;53.096;17.932;2023-06-26T03:24:22;100821.91;;;14.07;70.14
79370;BME280;68835;53.096;17.932;2023-06-26T03:26:49;100821.55;;;14.11;70.36
79370;BME280;68835;53.096;17.932;2023-06-26T03:29:15;100822.24;;;14.13;70.57
79370;BME280;68835;53.096;17.932;2023-06-26T03:31:42;100820.48;;;14.13;70.34
79370;BME280;68835;53.096;17.932;2023-06-26T03:34:09;100818.55;;;14.12;70.46
79370;BME280;68835;53.096;17.932;2023-06-26T03:36:36;100819.61;;;14.11;70.28
79370;BME280;68835;53.096;17.932;2023-06-26T03:39:02;100821.55;;;14.10;70.81
79370;BME280;68835;53.096;17.932;2023-06-26T03:41:30;100822.80;;;14.07;70.83
79370;BME280;68835;53.096;17.932;2023-06-26T03:43:56;100821.73;;;14.09;70.80
79370;BME280;68835;53.096;17.932;2023-06-26T03:46:29;100825.59;;;14.12;70.49
79370;BME280;68835;53.096;17.932;2023-06-26T03:48:57;100824.89;;;14.14;71.02
79370;BME280;68835;53.096;17.932;2023-06-26T03:51:24;100823.65;;;14.14;70.86
79370;BME280;68835;53.096;17.932;2023-06-26T03:53:50;100822.77;;;14.14;70.93
79370;BME280;68835;53.096;17.932;2023-06-26T03:56:17;100824.34;;;14.17;71.06
79370;BME280;68835;53.096;17.932;2023-06-26T03:58:43;100822.58;;;14.19;71.04
79370;BME280;68835;53.096;17.932;2023-06-26T04:01:10;100824.85;;;14.25;70.84
79370;BME280;68835;53.096;17.932;2023-06-26T04:03:37;100823.42;;;14.29;70.91
79370;BME280;68835;53.096;17.932;2023-06-26T04:06:04;100821.64;;;14.35;70.83
79370;BME280;68835;53.096;17.932;2023-06-26T04:08:30;100820.56;;;14.38;71.10
79370;BME280;68835;53.096;17.932;2023-06-26T04:10:57;100821.27;;;14.41;71.01
79370;BME280;68835;53.096;17.932;2023-06-26T04:13:25;100821.77;;;14.45;71.08
79370;BME280;68835;53.096;17.932;2023-06-26T04:15:51;100822.46;;;14.47;71.18
79370;BME280;68835;53.096;17.932;2023-06-26T04:18:18;100818.23;;;14.48;71.46
79370;BME280;68835;53.096;17.932;2023-06-26T04:21:06;100819.14;;;14.49;71.11
79370;BME280;68835;53.096;17.932;2023-06-26T04:23:33;100820.68;;;14.57;71.34
79370;BME280;68835;53.096;17.932;2023-06-26T04:26:01;100822.77;;;14.64;71.18
79370;BME280;68835;53.096;17.932;2023-06-26T04:28:29;100820.61;;;14.70;71.06
79370;BME280;68835;53.096;17.932;2023-06-26T04:30:55;100820.23;;;14.75;71.11
79370;BME280;68835;53.096;17.932;2023-06-26T04:33:22;100818.98;;;14.79;71.28
79370;BME280;68835;53.096;17.932;2023-06-26T04:35:49;100818.24;;;14.84;71.13
79370;BME280;68835;53.096;17.932;2023-06-26T04:38:16;100816.45;;;14.90;71.41
79370;BME280;68835;53.096;17.932;2023-06-26T04:40:42;100820.27;;;14.96;71.32
79370;BME280;68835;53.096;17.932;2023-06-26T04:43:09;100811.41;;;15.03;71.37
79370;BME280;68835;53.096;17.932;2023-06-26T04:45:36;100814.37;;;15.08;71.57
79370;BME280;68835;53.096;17.932;2023-06-26T04:48:03;100814.33;;;15.15;71.33
79370;BME280;68835;53.096;17.932;2023-06-26T04:50:31;100817.98;;;15.21;71.30
79370;BME280;68835;53.096;17.932;2023-06-26T04:52:58;100825.82;;;15.34;71.09
79370;BME280;68835;53.096;17.932;2023-06-26T04:55:24;100822.88;;;15.47;71.18
79370;BME280;68835;53.096;17.932;2023-06-26T04:57:51;100821.55;;;15.58;70.96
79370;BME280;68835;53.096;17.932;2023-06-26T05:00:19;100824.14;;;15.68;70.98
79370;BME280;68835;53.096;17.932;2023-06-26T05:02:46;100822.26;;;15.79;71.00
79370;BME280;68835;53.096;17.932;2023-06-26T05:05:12;100821.98;;;15.88;70.96
79370;BME280;68835;53.096;17.932;2023-06-26T05:07:41;100818.70;;;15.98;70.92
79370;BME280;68835;53.096;17.932;2023-06-26T05:10:07;100819.85;;;16.06;70.69
79370;BME280;68835;53.096;17.932;2023-06-26T05:12:34;100816.41;;;16.15;70.90
79370;BME280;68835;53.096;17.932;2023-06-26T05:15:01;100818.81;;;16.19;70.86
79370;BME280;68835;53.096;17.932;2023-06-26T05:17:27;100814.84;;;16.27;70.98
79370;BME280;68835;53.096;17.932;2023-06-26T05:19:54;100809.45;;;16.34;70.83
79370;BME280;68835;53.096;17.932;2023-06-26T05:22:21;100809.86;;;16.42;70.70
79370;BME280;68835;53.096;17.932;2023-06-26T05:24:48;100808.67;;;16.53;70.31
79370;BME280;68835;53.096;17.932;2023-06-26T05:27:16;100804.29;;;16.64;70.41
79370;BME280;68835;53.096;17.932;2023-06-26T05:29:48;100803.42;;;16.76;70.33
79370;BME280;68835;53.096;17.932;2023-06-26T05:32:16;100801.66;;;16.88;70.30
79370;BME280;68835;53.096;17.932;2023-06-26T05:34:49;100799.71;;;17.00;70.04
79370;BME280;68835;53.096;17.932;2023-06-26T05:37:20;100800.23;;;17.12;69.97
79370;BME280;68835;53.096;17.932;2023-06-26T05:39:47;100799.70;;;17.23;69.32
79370;BME280;68835;53.096;17.932;2023-06-26T05:42:14;100798.16;;;17.41;68.42
79370;BME280;68835;53.096;17.932;2023-06-26T05:44:41;100801.41;;;17.58;68.47
79370;BME280;68835;53.096;17.932;2023-06-26T05:47:07;100803.08;;;17.73;68.49
79370;BME280;68835;53.096;17.932;2023-06-26T05:49:34;100808.14;;;17.88;68.62
79370;BME280;68835;53.096;17.932;2023-06-26T05:52:01;100805.36;;;18.03;67.32
79370;BME280;68835;53.096;17.932;2023-06-26T05:54:28;100798.98;;;18.21;66.88
79370;BME280;68835;53.096;17.932;2023-06-26T05:56:57;100798.46;;;18.37;66.14
79370;BME280;68835;53.096;17.932;2023-06-26T05:59:27;100794.95;;;18.53;66.10
79370;BME280;68835;53.096;17.932;2023-06-26T06:01:56;100793.08;;;18.65;65.71
79370;BME280;68835;53.096;17.932;2023-06-26T06:04:23;100790.98;;;18.81;65.19
79370;BME280;68835;53.096;17.932;2023-06-26T06:06:51;100785.48;;;18.96;64.82
79370;BME280;68835;53.096;17.932;2023-06-26T06:09:18;100788.36;;;19.09;64.73
79370;BME280;68835;53.096;17.932;2023-06-26T06:11:45;100791.10;;;19.20;65.37
79370;BME280;68835;53.096;17.932;2023-06-26T06:14:11;100792.75;;;19.32;64.66
79370;BME280;68835;53.096;17.932;2023-06-26T06:16:38;100793.78;;;19.47;64.39
79370;BME280;68835;53.096;17.932;2023-06-26T06:19:05;100794.02;;;19.59;63.99
79370;BME280;68835;53.096;17.932;2023-06-26T06:21:33;100789.30;;;19.70;63.08
79370;BME280;68835;53.096;17.932;2023-06-26T06:23:59;100787.02;;;19.82;62.65
79370;BME280;68835;53.096;17.932;2023-06-26T06:26:27;100789.54;;;19.94;62.20
79370;BME280;68835;53.096;17.932;2023-06-26T06:28:54;100787.23;;;20.06;61.92
79370;BME280;68835;53.096;17.932;2023-06-26T06:31:21;100783.74;;;20.16;61.97
79370;BME280;68835;53.096;17.932;2023-06-26T06:33:48;100781.81;;;20.28;61.08
79370;BME280;68835;53.096;17.932;2023-06-26T06:36:14;100781.59;;;20.41;62.23
79370;BME280;68835;53.096;17.932;2023-06-26T06:38:44;100783.80;;;20.51;62.74
79370;BME280;68835;53.096;17.932;2023-06-26T06:41:10;100780.52;;;20.60;61.31
79370;BME280;68835;53.096;17.932;2023-06-26T06:43:37;100782.55;;;20.69;60.28
79370;BME280;68835;53.096;17.932;2023-06-26T06:46:04;100780.65;;;20.79;60.09
79370;BME280;68835;53.096;17.932;2023-06-26T06:48:31;100780.90;;;20.87;60.39
79370;BME280;68835;53.096;17.932;2023-06-26T06:50:58;100779.42;;;20.95;59.95
79370;BME280;68835;53.096;17.932;2023-06-26T06:53:24;100779.19;;;21.02;59.75
79370;BME280;68835;53.096;17.932;2023-06-26T06:55:51;100781.71;;;21.12;59.49
79370;BME280;68835;53.096;17.932;2023-06-26T06:58:18;100783.55;;;21.20;59.48
79370;BME280;68835;53.096;17.932;2023-06-26T07:00:47;100783.57;;;21.31;58.22
79370;BME280;68835;53.096;17.932;2023-06-26T07:03:13;100778.75;;;21.42;57.77
79370;BME280;68835;53.096;17.932;2023-06-26T07:05:41;100780.92;;;21.52;56.93
79370;BME280;68835;53.096;17.932;2023-06-26T07:08:08;100780.14;;;21.59;56.99
79370;BME280;68835;53.096;17.932;2023-06-26T07:10:35;100780.76;;;21.66;56.74
79370;BME280;68835;53.096;17.932;2023-06-26T07:13:02;100781.60;;;21.78;56.40
79370;BME280;68835;53.096;17.932;2023-06-26T07:15:28;100781.52;;;21.91;56.15
79370;BME280;68835;53.096;17.932;2023-06-26T07:17:55;100778.29;;;22.01;55.58
79370;BME280;68835;53.096;17.932;2023-06-26T07:20:21;100781.48;;;22.11;55.44
79370;BME280;68835;53.096;17.932;2023-06-26T07:22:48;100779.36;;;22.21;55.80
79370;BME280;68835;53.096;17.932;2023-06-26T07:25:14;100777.52;;;22.32;55.32
79370;BME280;68835;53.096;17.932;2023-06-26T07:27:41;100779.35;;;22.44;55.22
79370;BME280;68835;53.096;17.932;2023-06-26T07:30:09;100778.81;;;22.54;54.68
79370;BME280;68835;53.096;17.932;2023-06-26T07:32:39;100776.20;;;22.61;53.82
79370;BME280;68835;53.096;17.932;2023-06-26T07:35:07;100776.16;;;22.71;53.53
79370;BME280;68835;53.096;17.932;2023-06-26T07:37:33;100772.50;;;22.82;53.29
79370;BME280;68835;53.096;17.932;2023-06-26T07:40:00;100771.98;;;22.91;53.03
79370;BME280;68835;53.096;17.932;2023-06-26T07:42:26;100767.90;;;22.95;52.90
79370;BME280;68835;53.096;17.932;2023-06-26T07:44:53;100760.16;;;23.01;52.81
79370;BME280;68835;53.096;17.932;2023-06-26T07:47:19;100760.60;;;23.16;52.31
79370;BME280;68835;53.096;17.932;2023-06-26T07:49:46;100762.98;;;23.24;52.05
79370;BME280;68835;53.096;17.932;2023-06-26T07:52:12;100764.19;;;23.33;52.01
79370;BME280;68835;53.096;17.932;2023-06-26T07:54:41;100758.95;;;23.43;51.28
79370;BME280;68835;53.096;17.932;2023-06-26T07:57:07;100755.85;;;23.52;51.48
79370;BME280;68835;53.096;17.932;2023-06-26T07:59:35;100758.10;;;23.66;51.40
79370;BME280;68835;53.096;17.932;2023-06-26T08:02:01;100758.61;;;23.83;50.70
79370;BME280;68835;53.096;17.932;2023-06-26T08:04:30;100755.55;;;24.00;50.14
79370;BME280;68835;53.096;17.932;2023-06-26T08:06:58;100756.42;;;24.16;50.21
79370;BME280;68835;53.096;17.932;2023-06-26T08:09:28;100749.34;;;24.26;48.98
79370;BME280;68835;53.096;17.932;2023-06-26T08:11:56;100750.99;;;24.32;48.54
79370;BME280;68835;53.096;17.932;2023-06-26T08:14:23;100749.63;;;24.47;48.76
79370;BME280;68835;53.096;17.932;2023-06-26T08:16:50;100741.36;;;24.66;48.84
79370;BME280;68835;53.096;17.932;2023-06-26T08:19:18;100743.02;;;24.84;46.85
79370;BME280;68835;53.096;17.932;2023-06-26T08:21:45;100741.13;;;25.00;46.08
79370;BME280;68835;53.096;17.932;2023-06-26T08:24:12;100739.03;;;25.10;46.26
79370;BME280;68835;53.096;17.932;2023-06-26T08:26:39;100736.98;;;25.23;45.55
79370;BME280;68835;53.096;17.932;2023-06-26T08:29:05;100733.95;;;25.33;45.63
79370;BME280;68835;53.096;17.932;2023-06-26T08:31:35;100735.60;;;25.46;45.27
79370;BME280;68835;53.096;17.932;2023-06-26T08:34:03;100739.41;;;25.58;45.04
79370;BME280;68835;53.096;17.932;2023-06-26T08:36:30;100739.50;;;25.70;44.63
79370;BME280;68835;53.096;17.932;2023-06-26T08:38:57;100741.68;;;25.84;44.53
79370;BME280;68835;53.096;17.932;2023-06-26T08:41:25;100738.59;;;25.95;42.84
79370;BME280;68835;53.096;17.932;2023-06-26T08:43:52;100738.56;;;25.98;42.13
79370;BME280;68835;53.096;17.932;2023-06-26T08:46:19;100737.70;;;26.08;41.72
79370;BME280;68835;53.096;17.932;2023-06-26T08:48:56;100736.05;;;26.15;40.47
79370;BME280;68835;53.096;17.932;2023-06-26T08:51:28;100732.62;;;26.19;40.65
79370;BME280;68835;53.096;17.932;2023-06-26T08:53:59;100729.73;;;26.22;40.15
79370;BME280;68835;53.096;17.932;2023-06-26T08:56:36;100727.27;;;26.25;40.04
79370;BME280;68835;53.096;17.932;2023-06-26T08:59:04;100728.27;;;26.32;40.30
79370;BME280;68835;53.096;17.932;2023-06-26T09:01:32;100724.16;;;26.48;40.71
79370;BME280;68835;53.096;17.932;2023-06-26T09:03:59;100714.80;;;26.68;40.52
79370;BME280;68835;53.096;17.932;2023-06-26T09:06:25;100719.25;;;26.93;40.53
79370;BME280;68835;53.096;17.932;2023-06-26T09:08:52;100718.77;;;27.20;40.07
79370;BME280;68835;53.096;17.932;2023-06-26T09:11:19;100722.45;;;27.48;39.91
79370;BME280;68835;53.096;17.932;2023-06-26T09:13:46;100720.43;;;27.67;39.62
79370;BME280;68835;53.096;17.932;2023-06-26T09:16:13;100720.98;;;27.67;40.00
79370;BME280;68835;53.096;17.932;2023-06-26T09:18:40;100715.48;;;27.80;38.15
79370;BME280;68835;53.096;17.932;2023-06-26T09:21:11;100715.86;;;27.80;38.16
79370;BME280;68835;53.096;17.932;2023-06-26T09:23:40;100706.72;;;27.80;39.13
79370;BME280;68835;53.096;17.932;2023-06-26T09:26:07;100707.43;;;27.74;39.15
79370;BME280;68835;53.096;17.932;2023-06-26T09:28:35;100705.98;;;27.62;39.80
79370;BME280;68835;53.096;17.932;2023-06-26T09:31:07;100702.81;;;27.61;38.87
79370;BME280;68835;53.096;17.932;2023-06-26T09:33:35;100701.48;;;27.62;38.92
79370;BME280;68835;53.096;17.932;2023-06-26T09:36:18;100698.59;;;27.68;38.30
79370;BME280;68835;53.096;17.932;2023-06-26T09:38:45;100703.77;;;27.69;38.13
79370;BME280;68835;53.096;17.932;2023-06-26T09:41:16;100696.08;;;27.77;37.85
79370;BME280;68835;53.096;17.932;2023-06-26T09:43:49;100693.84;;;27.95;37.70
79370;BME280;68835;53.096;17.932;2023-06-26T09:46:17;100692.02;;;28.13;37.80
79370;BME280;68835;53.096;17.932;2023-06-26T09:48:53;100692.92;;;27.96;38.01
79370;BME280;68835;53.096;17.932;2023-06-26T09:51:24;100690.48;;;27.81;38.95
79370;BME280;68835;53.096;17.932;2023-06-26T09:53:50;100696.00;;;27.66;39.74
79370;BME280;68835;53.096;17.932;2023-06-26T09:56:17;100690.98;;;27.60;40.27
79370;BME280;68835;53.096;17.932;2023-06-26T09:58:44;100688.08;;;27.87;39.72
79370;BME280;68835;53.096;17.932;2023-06-26T10:01:10;100684.90;;;28.26;38.61
79370;BME280;68835;53.096;17.932;2023-06-26T10:03:37;100686.59;;;28.58;38.09
79370;BME280;68835;53.096;17.932;2023-06-26T10:06:04;100683.73;;;28.36;38.01
79370;BME280;68835;53.096;17.932;2023-06-26T10:08:32;100685.61;;;28.18;39.10
79370;BME280;68835;53.096;17.932;2023-06-26T10:11:00;100687.09;;;27.86;40.08
79370;BME280;68835;53.096;17.932;2023-06-26T10:13:42;100689.46;;;27.53;40.21
79370;BME280;68835;53.096;17.932;2023-06-26T10:16:10;100688.71;;;27.36;39.46
79370;BME280;68835;53.096;17.932;2023-06-26T10:18:38;100682.94;;;27.19;37.90
79370;BME280;68835;53.096;17.932;2023-06-26T10:21:06;100678.06;;;27.28;37.65
79370;BME280;68835;53.096;17.932;2023-06-26T10:23:36;100675.64;;;27.62;37.24
79370;BME280;68835;53.096;17.932;2023-06-26T10:26:07;100671.67;;;27.82;36.91
79370;BME280;68835;53.096;17.932;2023-06-26T10:28:35;100668.65;;;28.38;35.65
79370;BME280;68835;53.096;17.932;2023-06-26T10:31:05;100667.41;;;28.97;35.28
79370;BME280;68835;53.096;17.932;2023-06-26T10:33:34;100662.14;;;29.19;34.94
79370;BME280;68835;53.096;17.932;2023-06-26T10:36:26;100658.52;;;29.56;34.56
79370;BME280;68835;53.096;17.932;2023-06-26T10:38:57;100653.69;;;30.05;33.27
79370;BME280;68835;53.096;17.932;2023-06-26T10:41:25;100652.27;;;30.05;33.29
79370;BME280;68835;53.096;17.932;2023-06-26T10:46:25;100643.17;;;31.40;33.17
79370;BME280;68835;53.096;17.932;2023-06-26T10:49:00;100642.52;;;32.07;32.19
79370;BME280;68835;53.096;17.932;2023-06-26T10:51:28;100644.58;;;32.57;30.69
79370;BME280;68835;53.096;17.932;2023-06-26T10:53:56;100644.16;;;33.06;29.76
79370;BME280;68835;53.096;17.932;2023-06-26T10:56:49;100643.67;;;33.69;28.58
79370;BME280;68835;53.096;17.932;2023-06-26T10:59:18;100641.06;;;34.06;26.95
79370;BME280;68835;53.096;17.932;2023-06-26T11:01:56;100634.80;;;34.19;25.90
79370;BME280;68835;53.096;17.932;2023-06-26T11:04:44;100633.98;;;34.26;24.73
79370;BME280;68835;53.096;17.932;2023-06-26T11:07:25;100636.09;;;34.43;24.29
79370;BME280;68835;53.096;17.932;2023-06-26T11:12:35;100629.67;;;34.71;22.40
79370;BME280;68835;53.096;17.932;2023-06-26T11:15:16;100630.27;;;34.88;22.75
79370;BME280;68835;53.096;17.932;2023-06-26T11:17:44;100629.17;;;35.07;22.68
79370;BME280;68835;53.096;17.932;2023-06-26T11:20:12;100629.48;;;35.10;22.19
79370;BME280;68835;53.096;17.932;2023-06-26T11:22:40;100623.83;;;35.23;21.83
79370;BME280;68835;53.096;17.932;2023-06-26T11:25:08;100621.02;;;35.28;21.52
79370;BME280;68835;53.096;17.932;2023-06-26T11:30:07;100622.35;;;35.12;21.34
79370;BME280;68835;53.096;17.932;2023-06-26T11:32:34;100623.33;;;35.33;20.72
79370;BME280;68835;53.096;17.932;2023-06-26T11:35:01;100621.23;;;35.52;20.96
79370;BME280;68835;53.096;17.932;2023-06-26T11:37:28;100623.48;;;35.91;20.78
79370;BME280;68835;53.096;17.932;2023-06-26T11:39:54;100614.77;;;36.29;20.75
79370;BME280;68835;53.096;17.932;2023-06-26T11:42:21;100618.73;;;36.58;19.75
79370;BME280;68835;53.096;17.932;2023-06-26T11:44:48;100616.40;;;36.72;20.17
79370;BME280;68835;53.096;17.932;2023-06-26T11:47:16;100617.59;;;37.14;20.15
79370;BME280;68835;53.096;17.932;2023-06-26T11:49:47;100613.86;;;37.18;19.12
79370;BME280;68835;53.096;17.932;2023-06-26T11:52:15;100613.94;;;37.26;19.11
79370;BME280;68835;53.096;17.932;2023-06-26T11:54:42;100605.77;;;37.36;19.17
79370;BME280;68835;53.096;17.932;2023-06-26T11:57:14;100603.39;;;37.59;18.95
79370;BME280;68835;53.096;17.932;2023-06-26T11:59:41;100601.77;;;37.82;19.05
79370;BME280;68835;53.096;17.932;2023-06-26T12:02:09;100602.61;;;37.88;18.62
79370;BME280;68835;53.096;17.932;2023-06-26T12:04:37;100599.42;;;37.87;18.92
79370;BME280;68835;53.096;17.932;2023-06-26T12:07:06;100600.16;;;38.02;18.26
79370;BME280;68835;53.096;17.932;2023-06-26T12:09:42;100594.52;;;37.92;18.28
79370;BME280;68835;53.096;17.932;2023-06-26T12:12:15;100591.92;;;37.63;18.90
79370;BME280;68835;53.096;17.932;2023-06-26T12:14:42;100592.77;;;37.76;19.23
79370;BME280;68835;53.096;17.932;2023-06-26T12:17:13;100584.64;;;38.11;19.05
79370;BME280;68835;53.096;17.932;2023-06-26T12:19:44;100580.47;;;38.17;18.23
79370;BME280;68835;53.096;17.932;2023-06-26T12:22:14;100579.05;;;38.25;18.23
79370;BME280;68835;53.096;17.932;2023-06-26T12:24:40;100575.51;;;38.48;18.88
79370;BME280;68835;53.096;17.932;2023-06-26T12:27:13;100579.34;;;38.87;18.13
79370;BME280;68835;53.096;17.932;2023-06-26T12:29:45;100578.21;;;38.76;16.95
79370;BME280;68835;53.096;17.932;2023-06-26T12:32:13;100570.20;;;38.62;17.25
79370;BME280;68835;53.096;17.932;2023-06-26T12:34:40;100570.21;;;38.97;17.30
79370;BME280;68835;53.096;17.932;2023-06-26T12:37:09;100568.48;;;38.97;17.38
79370;BME280;68835;53.096;17.932;2023-06-26T12:39:50;100570.97;;;38.90;17.50
79370;BME280;68835;53.096;17.932;2023-06-26T12:42:27;100567.75;;;38.81;17.44
79370;BME280;68835;53.096;17.932;2023-06-26T12:44:55;100567.73;;;38.81;17.46
79370;BME280;68835;53.096;17.932;2023-06-26T12:47:28;100565.78;;;38.99;17.41
79370;BME280;68835;53.096;17.932;2023-06-26T12:49:57;100550.57;;;39.52;17.70
79370;BME280;68835;53.096;17.932;2023-06-26T12:52:24;100548.56;;;40.37;17.56
79370;BME280;68835;53.096;17.932;2023-06-26T12:54:54;100550.33;;;40.85;16.32
79370;BME280;68835;53.096;17.932;2023-06-26T12:57:22;100539.86;;;40.52;16.34
79370;BME280;68835;53.096;17.932;2023-06-26T12:59:49;100535.09;;;40.55;16.31